Time;durP1;ratioP1;P1;durP2;ratioP2;P2;SDS_P1;SDS_P2;PMS_P1;PMS_P2;Temp;Humidity;BMP_temperature;BMP_pressure;BME280_temperature;BME280_humidity;BME280_pressure;Samples;Min_cycle;Max_cycle;Signal;HPM_P1;HPM_P2
2020/12/29 00:02:07;;;;;;;1999.90;999.90;;;;;;;3.87;76.65;97832.94;15805370;28;20048;-58
2020/12/29 00:09:42;;;;;;;1999.90;999.90;;;;;;;4.13;76.55;97823.25;15808270;28;20083;-60
2020/12/29 00:17:23;;;;;;;1999.90;999.90;;;;;;;4.04;77.52;97804.13;15805433;28;20033;-59
2020/12/29 00:24:57;;;;;;;1999.90;999.90;;;;;;;4.02;77.70;97801.75;15801416;28;20074;-58
2020/12/29 00:32:29;;;;;;;1999.90;999.90;;;;;;;3.87;78.08;97801.78;15802460;28;20546;-59
2020/12/29 00:40:04;;;;;;;1999.90;999.90;;;;;;;4.12;77.08;97789.34;15801802;28;20408;-59
2020/12/29 00:47:37;;;;;;;1999.90;999.90;;;;;;;4.13;77.01;97793.69;15800016;28;20055;-60
2020/12/29 00:55:10;;;;;;;1999.90;999.90;;;;;;;4.22;76.24;97797.06;15800122;28;20055;-60
2020/12/29 01:02:53;;;;;;;1999.90;999.90;;;;;;;4.27;76.12;97820.78;15799325;28;20153;-59
2020/12/29 01:10:27;;;;;;;1999.90;999.90;;;;;;;4.09;76.99;97836.97;15798767;28;20087;-59
2020/12/29 01:18:18;;;;;;;1999.90;999.90;;;;;;;4.25;76.45;97839.69;15799449;28;20134;-60
2020/12/29 01:25:52;;;;;;;1999.90;999.90;;;;;;;4.29;76.35;97844.13;15799809;28;20048;-59
2020/12/29 01:33:24;;;;;;;1999.90;999.90;;;;;;;4.42;75.97;97844.00;15797910;28;20509;-57
2020/12/29 01:40:59;;;;;;;1999.90;999.90;;;;;;;4.14;77.12;97830.38;15798874;28;20097;-58
2020/12/29 01:48:32;;;;;;;1999.90;999.90;;;;;;;4.00;77.97;97856.47;15796478;28;20075;-58
2020/12/29 01:56:08;;;;;;;1999.90;999.90;;;;;;;3.97;78.14;97857.22;15797722;28;20178;-60
2020/12/29 02:03:43;;;;;;;1999.90;999.90;;;;;;;3.76;78.97;97851.19;15797870;28;20051;-59
2020/12/29 02:11:17;;;;;;;1999.90;999.90;;;;;;;3.94;77.98;97844.13;15796704;28;20504;-59
2020/12/29 02:18:50;;;;;;;1999.90;999.90;;;;;;;4.05;77.69;97845.16;15794731;28;20036;-58
2020/12/29 02:26:25;;;;;;;1999.90;999.90;;;;;;;4.02;78.07;97814.75;15794399;28;20074;-58
2020/12/29 02:33:58;;;;;;;1999.90;999.90;;;;;;;4.05;77.64;97798.25;15796403;28;20540;-59
2020/12/29 02:41:32;;;;;;;1999.90;999.90;;;;;;;4.20;77.66;97791.09;15796318;28;20600;-59
2020/12/29 02:49:05;;;;;;;1999.90;999.90;;;;;;;3.85;77.71;97801.34;15795423;28;20108;-60
2020/12/29 02:56:39;;;;;;;1999.90;999.90;;;;;;;4.08;76.78;97835.38;15794492;28;20097;-58
2020/12/29 03:04:11;;;;;;;;;;;;;;;3.95;77.93;97818.13;15795809;28;20074;-59
2020/12/29 03:11:45;;;;;;;1999.90;999.90;;;;;;;3.98;77.38;97822.16;15799191;28;19924;-61
2020/12/29 03:19:18;;;;;;;1999.90;999.90;;;;;;;4.16;77.08;97823.31;15807485;28;20097;-59
2020/12/29 03:26:51;;;;;;;1999.90;999.90;;;;;;;4.13;76.84;97835.09;15806860;28;20139;-60
2020/12/29 03:34:26;;;;;;;1999.90;999.90;;;;;;;3.99;77.33;97843.84;15805902;28;20048;-59
2020/12/29 03:41:59;;;;;;;1999.90;999.90;;;;;;;3.79;78.02;97839.44;15803996;28;20389;-61
2020/12/29 03:49:32;;;;;;;1999.90;999.90;;;;;;;3.64;77.91;97845.75;15802497;28;20044;-59
2020/12/29 03:57:06;;;;;;;1999.90;999.90;;;;;;;3.62;77.89;97859.91;15804103;28;20040;-61
2020/12/29 04:04:38;;;;;;;1999.90;999.90;;;;;;;3.50;78.24;97853.69;15803951;28;20048;-59
2020/12/29 04:12:12;;;;;;;1999.90;999.90;;;;;;;3.62;77.79;97854.38;15802141;28;20527;-59
2020/12/29 04:19:44;;;;;;;1999.90;999.90;;;;;;;3.61;77.74;97860.25;15802123;28;20358;-60
2020/12/29 04:27:19;;;;;;;1999.90;999.90;;;;;;;3.52;78.16;97876.16;15802090;28;20116;-62
2020/12/29 04:34:51;;;;;;;1999.90;999.90;;;;;;;3.52;78.73;97879.72;15801841;28;20048;-59
2020/12/29 04:42:25;;;;;;;1999.90;999.90;;;;;;;3.81;77.35;97872.16;15801736;28;20040;-62
2020/12/29 04:49:58;;;;;;;1999.90;999.90;;;;;;;3.63;77.29;97880.78;15799918;28;20048;-61
2020/12/29 04:57:32;;;;;;;1999.90;999.90;;;;;;;3.54;77.05;97879.38;15800398;28;20139;-62
2020/12/29 05:05:04;;;;;;;1999.90;999.90;;;;;;;3.32;77.40;97900.06;15800521;28;20227;-59
2020/12/29 05:12:47;;;;;;;1999.90;999.90;;;;;;;3.23;77.70;97899.44;15800517;28;20040;-62
2020/12/29 05:20:33;;;;;;;1999.90;999.90;;;;;;;3.02;78.51;97910.66;15798332;28;20178;-60
2020/12/29 05:28:06;;;;;;;1999.90;999.90;;;;;;;2.87;78.83;97921.28;15781084;28;20075;-60
2020/12/29 05:35:40;;;;;;;1999.90;999.90;;;;;;;2.87;78.49;97934.25;15798466;28;20124;-57
2020/12/29 05:43:15;;;;;;;1999.90;999.90;;;;;;;3.01;77.40;97936.59;15798177;28;20156;-60
2020/12/29 05:50:47;;;;;;;1999.90;999.90;;;;;;;2.86;77.78;97944.47;15798303;28;20105;-59
2020/12/29 05:58:23;;;;;;;1999.90;999.90;;;;;;;3.01;77.02;97936.59;15796689;28;20048;-60
2020/12/29 06:05:59;;;;;;;1999.90;999.90;;;;;;;2.96;77.63;97945.13;15797059;28;20434;-60
2020/12/29 06:13:37;;;;;;;1999.90;999.90;;;;;;;2.82;77.46;97949.09;15796479;28;20048;-60
2020/12/29 06:21:13;;;;;;;1999.90;999.90;;;;;;;2.77;77.91;97959.53;15795921;28;20560;-57
2020/12/29 06:28:49;;;;;;;1999.90;999.90;;;;;;;2.80;77.59;97969.84;15794160;28;20044;-61
2020/12/29 06:36:23;;;;;;;1999.90;999.90;;;;;;;2.75;77.05;97957.13;15793615;28;20068;-61
2020/12/29 06:43:57;;;;;;;1999.90;999.90;;;;;;;2.68;77.23;97976.19;15798901;28;20048;-60
2020/12/29 06:51:29;;;;;;;;;;;;;;;2.67;77.35;97982.84;15790232;28;20503;-60
2020/12/29 06:59:04;;;;;;;1999.90;999.90;;;;;;;2.68;76.87;97995.44;15789223;28;20006;-61
2020/12/29 07:06:37;;;;;;;1999.90;999.90;;;;;;;2.76;76.49;98005.53;15805673;28;20051;-61
2020/12/29 07:14:11;;;;;;;1999.90;999.90;;;;;;;2.61;76.85;98025.53;15806437;28;20044;-61
2020/12/29 07:21:48;;;;;;;1999.90;999.90;;;;;;;2.68;76.83;98022.97;15806127;28;20116;-60
2020/12/29 07:29:21;;;;;;;1999.90;999.90;;;;;;;2.75;76.48;98036.97;15805910;28;20062;-61
2020/12/29 07:36:55;;;;;;;1999.90;999.90;;;;;;;2.77;75.87;98048.44;15805567;28;20041;-60
2020/12/29 07:44:29;;;;;;;1999.90;999.90;;;;;;;2.84;75.84;98042.38;15805221;28;20051;-58
2020/12/29 07:52:02;;;;;;;1999.90;999.90;;;;;;;2.82;75.32;98067.50;15808718;28;20036;-58
2020/12/29 07:59:35;;;;;;;1999.90;999.90;;;;;;;2.86;75.66;98076.66;15802881;28;20481;-61
2020/12/29 08:07:09;;;;;;;1999.90;999.90;;;;;;;2.99;75.10;98093.16;15804437;28;20287;-56
2020/12/29 08:14:43;;;;;;;1999.90;999.90;;;;;;;3.23;74.16;98095.91;15803717;28;20044;-59
2020/12/29 08:22:18;;;;;;;1999.90;999.90;;;;;;;3.17;74.26;98100.03;15803426;28;20064;-61
2020/12/29 08:29:52;;;;;;;1999.90;999.90;;;;;;;3.17;74.72;98117.38;15803522;28;20040;-58
2020/12/29 08:37:25;;;;;;;1999.90;999.90;;;;;;;3.35;73.99;98125.38;15802948;28;20386;-58
2020/12/29 08:45:00;;;;;;;1999.90;999.90;;;;;;;3.42;73.98;98150.38;15802684;28;20055;-61
2020/12/29 08:52:33;;;;;;;1999.90;999.90;;;;;;;3.78;73.48;98166.03;15802207;28;20477;-61
2020/12/29 09:00:06;;;;;;;1999.90;999.90;;;;;;;3.81;73.75;98181.88;15801980;28;20500;-59
2020/12/29 09:07:41;;;;;;;1999.90;999.90;;;;;;;4.35;72.09;98195.22;15799820;28;20040;-59
2020/12/29 09:15:25;;;;;;;1999.90;999.90;;;;;;;4.67;70.89;98209.88;15801583;28;20353;-61
2020/12/29 09:23:02;;;;;;;1999.90;999.90;;;;;;;5.90;68.05;98220.72;15800846;28;20497;-60
2020/12/29 09:30:36;;;;;;;1999.90;999.90;;;;;;;6.40;65.69;98235.66;15780909;28;20048;-61
2020/12/29 09:38:13;;;;;;;1999.90;999.90;;;;;;;8.18;60.90;98231.06;15798766;28;20040;-61
2020/12/29 09:45:47;;;;;;;1999.90;999.90;;;;;;;9.21;57.28;98242.53;15800359;28;20069;-59
2020/12/29 09:53:20;;;;;;;1999.90;999.90;;;;;;;8.37;58.98;98249.59;15796497;28;20066;-61
2020/12/29 10:00:54;;;;;;;1999.90;999.90;;;;;;;6.71;63.65;98252.09;15797474;28;20074;-56
2020/12/29 10:08:27;;;;;;;1999.90;999.90;;;;;;;7.94;62.49;98267.63;15798889;28;20339;-59
2020/12/29 10:16:01;;;;;;;1999.90;999.90;;;;;;;7.22;63.46;98274.03;15797310;28;20067;-59
2020/12/29 10:23:33;;;;;;;1999.90;999.90;;;;;;;8.40;59.61;98284.94;15795579;28;20044;-61
2020/12/29 10:31:08;;;;;;;1999.90;999.90;;;;;;;7.05;63.20;98297.47;15795359;28;20465;-59
2020/12/29 10:38:41;;;;;;;1999.90;999.90;;;;;;;5.89;66.45;98299.41;15795939;28;20105;-58
2020/12/29 10:46:14;;;;;;;1999.90;999.90;;;;;;;5.82;68.20;98296.44;15797065;28;20048;-61
2020/12/29 10:53:47;;;;;;;1999.90;999.90;;;;;;;5.64;68.61;98304.34;15797645;28;20068;-61
2020/12/29 11:01:22;;;;;;;1999.90;999.90;;;;;;;6.07;67.69;98309.75;15796390;28;20501;-60
2020/12/29 11:08:54;;;;;;;1999.90;999.90;;;;;;;7.37;64.31;98302.78;15794071;28;20071;-59
2020/12/29 11:16:28;;;;;;;1999.90;999.90;;;;;;;7.82;62.50;98315.84;15794055;28;20044;-60
2020/12/29 11:24:01;;;;;;;1999.90;999.90;;;;;;;7.35;64.22;98325.34;15794126;28;20043;-60
2020/12/29 11:31:34;;;;;;;1999.90;999.90;;;;;;;9.43;59.52;98333.38;15797824;28;20124;-61
2020/12/29 11:39:07;;;;;;;1999.90;999.90;;;;;;;10.87;54.60;98341.56;15805403;28;20075;-59
2020/12/29 11:46:40;;;;;;;1999.90;999.90;;;;;;;7.70;63.08;98349.31;15804030;28;20043;-60
2020/12/29 11:54:13;;;;;;;1999.90;999.90;;;;;;;7.44;65.26;98359.22;15803292;28;20044;-60
2020/12/29 12:01:46;;;;;;;1999.90;999.90;;;;;;;6.94;66.79;98372.13;15802763;28;20069;-59
2020/12/29 12:09:19;;;;;;;1999.90;999.90;;;;;;;7.93;64.04;98375.13;15804027;28;20040;-60
2020/12/29 12:16:53;;;;;;;1999.90;999.90;;;;;;;7.96;64.40;98379.13;15802842;28;20494;-59
2020/12/29 12:24:25;;;;;;;1999.90;999.90;;;;;;;7.28;64.89;98402.09;15785065;28;20048;-59
2020/12/29 12:31:59;;;;;;;1999.90;999.90;;;;;;;7.14;66.80;98394.28;15802832;28;20040;-60
2020/12/29 12:39:32;;;;;;;1999.90;999.90;;;;;;;6.84;67.40;98405.97;15800891;28;20082;-57
2020/12/29 12:47:06;;;;;;;1999.90;999.90;;;;;;;6.29;69.32;98413.47;15803659;28;20453;-61
2020/12/29 12:54:39;;;;;;;1999.90;999.90;;;;;;;6.51;69.12;98431.38;15802481;28;20037;-57
2020/12/29 13:02:13;;;;;;;1999.90;999.90;;;;;;;6.71;68.48;98428.66;15801890;28;20124;-60
2020/12/29 13:09:45;;;;;;;1999.90;999.90;;;;;;;6.52;68.97;98448.81;15802183;28;20173;-61
2020/12/29 13:17:22;;;;;;;1999.90;999.90;;;;;;;6.57;69.75;98467.94;15800332;28;20048;-60
2020/12/29 13:24:55;;;;;;;1999.90;999.90;;;;;;;6.87;68.47;98473.72;15800383;28;20044;-59
2020/12/29 13:32:28;;;;;;;1999.90;999.90;;;;;;;6.87;69.02;98488.41;15801336;28;20040;-59
2020/12/29 13:40:05;;;;;;;1999.90;999.90;;;;;;;6.43;70.95;98511.91;15800359;28;20048;-59
2020/12/29 13:47:39;;;;;;;1999.90;999.90;;;;;;;6.62;70.17;98525.84;15798671;28;20081;-57
2020/12/29 13:55:12;;;;;;;;;;;;;;;6.77;70.28;98541.63;15798727;28;20088;-60
2020/12/29 14:02:45;;;;;;;1999.90;999.90;;;;;;;6.68;70.03;98548.53;15800386;28;19927;-59
2020/12/29 14:10:18;;;;;;;1999.90;999.90;;;;;;;6.43;70.38;98568.13;15798305;28;20044;-59
2020/12/29 14:17:52;;;;;;;1999.90;999.90;;;;;;;6.72;69.93;98577.13;15797115;28;20040;-58
2020/12/29 14:25:25;;;;;;;1999.90;999.90;;;;;;;6.76;69.53;98598.22;15799624;28;20214;-59
2020/12/29 14:32:58;;;;;;;1999.90;999.90;;;;;;;6.59;70.11;98612.47;15799407;28;20386;-60
2020/12/29 14:40:31;;;;;;;1999.90;999.90;;;;;;;6.68;70.04;98629.72;15797682;28;20055;-56
2020/12/29 14:48:04;;;;;;;1999.90;999.90;;;;;;;6.51;70.92;98636.41;15796435;28;20093;-59
2020/12/29 14:55:37;;;;;;;1999.90;999.90;;;;;;;6.54;71.15;98638.44;15795961;28;20051;-58
2020/12/29 15:03:11;;;;;;;1999.90;999.90;;;;;;;6.29;72.79;98648.09;15798250;28;20040;-59
2020/12/29 15:10:44;;;;;;;;;;;;;;;6.39;72.66;98663.38;15809537;28;20401;-59
2020/12/29 15:18:18;;;;;;;1999.90;999.90;;;;;;;6.31;73.36;98684.53;15808356;28;20519;-57
2020/12/29 15:25:51;;;;;;;1999.90;999.90;;;;;;;6.43;73.02;98700.28;15809684;28;20040;-61
2020/12/29 15:33:25;;;;;;;1999.90;999.90;;;;;;;6.47;73.22;98710.31;15808248;28;20504;-59
2020/12/29 15:40:58;;;;;;;1999.90;999.90;;;;;;;6.18;73.70;98716.22;15808759;28;20051;-59
2020/12/29 15:48:31;;;;;;;1999.90;999.90;;;;;;;6.29;73.52;98740.28;15808403;28;20044;-58
2020/12/29 15:56:05;;;;;;;1999.90;999.90;;;;;;;6.23;73.79;98744.44;15805665;28;20127;-59
2020/12/29 16:03:39;;;;;;;1999.90;999.90;;;;;;;6.08;73.75;98751.56;15807295;28;20059;-57
2020/12/29 16:11:12;;;;;;;1999.90;999.90;;;;;;;6.11;73.57;98772.19;15806396;28;20082;-56
2020/12/29 16:18:46;;;;;;;1999.90;999.90;;;;;;;6.08;73.43;98808.88;15803371;28;20040;-57
2020/12/29 16:26:21;;;;;;;1999.90;999.90;;;;;;;6.01;74.47;98817.78;15805477;28;20123;-57
2020/12/29 16:33:55;;;;;;;1999.90;999.90;;;;;;;6.15;73.53;98828.50;15804315;28;20032;-59
2020/12/29 16:41:29;;;;;;;1999.90;999.90;;;;;;;5.96;74.21;98823.56;15786897;28;20071;-59
2020/12/29 16:49:04;;;;;;;1999.90;999.90;;;;;;;5.69;75.10;98838.88;15804224;28;20048;-58
2020/12/29 16:56:39;;;;;;;1999.90;999.90;;;;;;;5.52;74.88;98844.63;15803422;28;20062;-58
2020/12/29 17:04:13;;;;;;;1999.90;999.90;;;;;;;5.35;75.72;98842.91;15803032;28;20054;-58
2020/12/29 17:11:46;;;;;;;1999.90;999.90;;;;;;;5.28;75.08;98858.44;15802703;28;20063;-59
2020/12/29 17:19:19;;;;;;;1999.90;999.90;;;;;;;5.15;75.63;98880.53;15802272;28;20082;-57
2020/12/29 17:26:52;;;;;;;1999.90;999.90;;;;;;;5.24;75.91;98910.84;15801654;28;20135;-57
2020/12/29 17:34:26;;;;;;;1999.90;999.90;;;;;;;5.14;76.16;98911.28;15801258;28;20193;-58
2020/12/29 17:41:59;;;;;;;1999.90;999.90;;;;;;;5.14;76.06;98925.91;15800527;28;20397;-57
2020/12/29 17:49:33;;;;;;;1999.90;999.90;;;;;;;5.10;76.28;98941.56;15800149;28;20516;-55
2020/12/29 17:57:05;;;;;;;;;;;;;;;5.39;75.41;98946.16;15801635;28;20052;-58
2020/12/29 18:04:39;;;;;;;1999.90;999.90;;;;;;;5.23;75.67;98961.78;15799950;28;19977;-59
2020/12/29 18:12:12;;;;;;;1999.90;999.90;;;;;;;4.99;76.55;98968.00;15802363;28;20340;-57
2020/12/29 18:19:46;;;;;;;1999.90;999.90;;;;;;;5.02;76.05;98964.56;15798733;28;20514;-56
2020/12/29 18:27:18;;;;;;;1999.90;999.90;;;;;;;5.18;75.20;98978.56;15797627;28;20059;-57
2020/12/29 18:34:53;;;;;;;1999.90;999.90;;;;;;;5.16;74.82;98987.22;15798428;28;20250;-56
2020/12/29 18:42:26;;;;;;;1999.90;999.90;;;;;;;5.03;74.97;99004.09;15798853;28;20071;-59
2020/12/29 18:49:59;;;;;;;1999.90;999.90;;;;;;;4.87;75.43;99006.63;15799706;28;20040;-58
2020/12/29 18:57:32;;;;;;;1999.90;999.90;;;;;;;4.97;74.96;99030.28;15798289;28;20185;-58
2020/12/29 19:05:06;;;;;;;1999.90;999.90;;;;;;;4.97;74.30;99044.13;15798435;28;20115;-59
2020/12/29 19:12:40;;;;;;;;;;;;;;;5.07;73.34;99041.75;15798503;28;20033;-57
2020/12/29 19:20:14;;;;;;;1999.90;999.90;;;;;;;5.05;74.34;99059.84;15779774;28;19920;-56
2020/12/29 19:27:46;;;;;;;1999.90;999.90;;;;;;;5.02;73.37;99060.50;15798089;28;20385;-55
2020/12/29 19:35:20;;;;;;;1999.90;999.90;;;;;;;5.03;73.52;99070.44;15796496;28;20055;-59
2020/12/29 19:42:53;;;;;;;1999.90;999.90;;;;;;;4.95;73.16;99082.34;15797080;28;20048;-58
2020/12/29 19:50:26;;;;;;;1999.90;999.90;;;;;;;4.98;72.56;99093.53;15797666;28;20040;-57
2020/12/29 19:58:06;;;;;;;1999.90;999.90;;;;;;;4.83;72.94;99091.34;15808038;28;20056;-59
2020/12/29 20:05:39;;;;;;;1999.90;999.90;;;;;;;4.84;72.73;99104.03;15807437;28;20048;-59
2020/12/29 20:13:17;;;;;;;1999.90;999.90;;;;;;;4.79;72.68;99116.06;15807284;28;20124;-57
2020/12/29 20:20:51;;;;;;;1999.90;999.90;;;;;;;4.73;72.31;99116.63;15806639;28;20040;-59
2020/12/29 20:28:24;;;;;;;1999.90;999.90;;;;;;;4.65;71.86;99129.31;15804729;28;20509;-59
2020/12/29 20:35:58;;;;;;;1999.90;999.90;;;;;;;4.62;72.06;99138.28;15805986;28;20059;-57
2020/12/29 20:43:31;;;;;;;1999.90;999.90;;;;;;;4.61;71.54;99148.53;15806231;28;20052;-59
2020/12/29 20:51:04;;;;;;;1999.90;999.90;;;;;;;4.51;72.01;99170.97;15804466;28;20457;-59
2020/12/29 20:58:37;;;;;;;1999.90;999.90;;;;;;;4.32;72.38;99184.34;15802915;28;20036;-57
2020/12/29 21:06:10;;;;;;;1999.90;999.90;;;;;;;4.41;71.90;99187.91;15802667;28;20117;-55
2020/12/29 21:13:43;;;;;;;1999.90;999.90;;;;;;;4.21;72.14;99194.94;15800736;28;20354;-58
2020/12/29 21:21:24;;;;;;;1999.90;999.90;;;;;;;4.29;71.75;99216.19;15801926;28;20493;-58
2020/12/29 21:28:57;;;;;;;1999.90;999.90;;;;;;;4.19;72.13;99218.50;15800208;28;20165;-58
2020/12/29 21:36:31;;;;;;;1999.90;999.90;;;;;;;4.06;72.20;99234.06;15801202;28;20084;-58
2020/12/29 21:44:04;;;;;;;1999.90;999.90;;;;;;;3.92;72.38;99245.28;15800901;28;20093;-57
2020/12/29 21:51:37;;;;;;;1999.90;999.90;;;;;;;3.85;72.49;99258.75;15800476;28;20097;-55
2020/12/29 21:59:10;;;;;;;1999.90;999.90;;;;;;;3.75;72.51;99259.06;15798867;28;20044;-57
2020/12/29 22:06:44;;;;;;;1999.90;999.90;;;;;;;3.66;72.89;99275.63;15798202;28;20115;-59
2020/12/29 22:14:16;;;;;;;1999.90;999.90;;;;;;;3.58;73.16;99292.16;15798738;28;20417;-58
2020/12/29 22:21:50;;;;;;;1999.90;999.90;;;;;;;3.58;73.14;99300.44;15799035;28;20040;-59
2020/12/29 22:29:23;;;;;;;1999.90;999.90;;;;;;;3.66;72.62;99305.97;15797427;28;20392;-58
2020/12/29 22:36:58;;;;;;;1999.90;999.90;;;;;;;3.36;73.74;99313.19;15799288;28;20044;-59
2020/12/29 22:44:30;;;;;;;1999.90;999.90;;;;;;;3.50;73.32;99326.84;15796972;28;20044;-58
2020/12/29 22:52:04;;;;;;;1999.90;999.90;;;;;;;3.61;72.87;99322.66;15798688;28;20631;-58
2020/12/29 22:59:37;;;;;;;1999.90;999.90;;;;;;;3.43;73.13;99330.06;15797564;28;20497;-59
2020/12/29 23:07:10;;;;;;;1999.90;999.90;;;;;;;3.62;72.67;99328.97;15798577;28;20469;-59
2020/12/29 23:14:43;;;;;;;1999.90;999.90;;;;;;;3.41;72.80;99332.31;15798944;28;20158;-59
2020/12/29 23:22:17;;;;;;;1999.90;999.90;;;;;;;3.44;72.84;99334.47;15799117;28;20353;-57
2020/12/29 23:29:50;;;;;;;;;;;;;;;3.64;72.12;99344.06;15806395;28;20086;-56
2020/12/29 23:37:23;;;;;;;1999.90;999.90;;;;;;;3.44;72.80;99344.69;15807752;28;19920;-57
2020/12/29 23:44:56;;;;;;;1999.90;999.90;;;;;;;3.42;72.63;99352.44;15808920;28;20048;-59
2020/12/29 23:52:29;;;;;;;1999.90;999.90;;;;;;;3.49;72.38;99350.03;15807142;28;20036;-57
